sensor_id;sensor_type;location;lat;lon;timestamp;pressure;altitude;pressure_sealevel;temperature;humidity
57442;BME280;43284;47.042;15.498;2022-12-18T00:01:05;98484.31;;;-3.03;97.59
57442;BME280;43284;47.042;15.498;2022-12-18T00:03:35;98485.94;;;-3.06;97.52
57442;BME280;43284;47.042;15.498;2022-12-18T00:06:01;98480.56;;;-3.16;96.99
57442;BME280;43284;47.042;15.498;2022-12-18T00:08:27;98481.31;;;-3.20;97.00
57442;BME280;43284;47.042;15.498;2022-12-18T00:10:53;98484.59;;;-3.24;96.94
57442;BME280;43284;47.042;15.498;2022-12-18T00:13:19;98490.38;;;-3.31;96.71
57442;BME280;43284;47.042;15.498;2022-12-18T00:15:45;98491.25;;;-3.31;96.89
57442;BME280;43284;47.042;15.498;2022-12-18T00:18:10;98498.06;;;-3.31;97.24
57442;BME280;43284;47.042;15.498;2022-12-18T00:20:39;98503.00;;;-3.37;96.99
57442;BME280;43284;47.042;15.498;2022-12-18T00:23:06;98505.38;;;-3.43;96.50
57442;BME280;43284;47.042;15.498;2022-12-18T00:25:35;98513.75;;;-3.49;96.58
57442;BME280;43284;47.042;15.498;2022-12-18T00:28:02;98505.16;;;-3.51;96.74
57442;BME280;43284;47.042;15.498;2022-12-18T00:30:28;98508.59;;;-3.50;97.03
57442;BME280;43284;47.042;15.498;2022-12-18T00:32:54;98517.03;;;-3.53;97.25
57442;BME280;43284;47.042;15.498;2022-12-18T00:35:19;98518.66;;;-3.55;97.01
57442;BME280;43284;47.042;15.498;2022-12-18T00:37:45;98530.91;;;-3.45;96.28
57442;BME280;43284;47.042;15.498;2022-12-18T00:40:11;98534.06;;;-3.54;95.88
57442;BME280;43284;47.042;15.498;2022-12-18T00:42:37;98530.47;;;-3.60;96.27
57442;BME280;43284;47.042;15.498;2022-12-18T00:45:22;98531.06;;;-3.67;96.39
57442;BME280;43284;47.042;15.498;2022-12-18T00:47:47;98530.31;;;-3.65;97.69
57442;BME280;43284;47.042;15.498;2022-12-18T00:50:13;98537.09;;;-3.67;97.39
57442;BME280;43284;47.042;15.498;2022-12-18T00:52:38;98531.00;;;-3.70;97.24
57442;BME280;43284;47.042;15.498;2022-12-18T00:55:04;98537.16;;;-3.64;96.50
57442;BME280;43284;47.042;15.498;2022-12-18T00:57:30;98540.75;;;-3.57;95.73
57442;BME280;43284;47.042;15.498;2022-12-18T00:59:55;98530.91;;;-3.74;95.29
57442;BME280;43284;47.042;15.498;2022-12-18T01:02:23;98539.06;;;-3.85;95.78
57442;BME280;43284;47.042;15.498;2022-12-18T01:04:49;98544.88;;;-3.91;95.75
57442;BME280;43284;47.042;15.498;2022-12-18T01:07:14;98543.09;;;-3.94;96.63
57442;BME280;43284;47.042;15.498;2022-12-18T01:09:40;98547.44;;;-3.89;97.33
57442;BME280;43284;47.042;15.498;2022-12-18T01:12:06;98548.00;;;-4.00;96.41
57442;BME280;43284;47.042;15.498;2022-12-18T01:14:31;98553.88;;;-4.02;96.47
57442;BME280;43284;47.042;15.498;2022-12-18T01:16:57;98562.16;;;-4.09;96.13
57442;BME280;43284;47.042;15.498;2022-12-18T01:19:22;98561.44;;;-4.05;97.09
57442;BME280;43284;47.042;15.498;2022-12-18T01:21:49;98565.81;;;-4.01;97.97
57442;BME280;43284;47.042;15.498;2022-12-18T01:24:14;98568.09;;;-4.10;97.06
57442;BME280;43284;47.042;15.498;2022-12-18T01:26:40;98569.88;;;-4.08;97.98
57442;BME280;43284;47.042;15.498;2022-12-18T01:29:05;98572.16;;;-4.16;96.88
57442;BME280;43284;47.042;15.498;2022-12-18T01:31:33;98575.50;;;-4.18;96.80
57442;BME280;43284;47.042;15.498;2022-12-18T01:34:00;98579.53;;;-4.25;96.38
57442;BME280;43284;47.042;15.498;2022-12-18T01:36:28;98577.69;;;-4.29;96.47
57442;BME280;43284;47.042;15.498;2022-12-18T01:38:55;98582.00;;;-4.28;96.90
57442;BME280;43284;47.042;15.498;2022-12-18T01:41:27;98589.16;;;-4.16;98.56
57442;BME280;43284;47.042;15.498;2022-12-18T01:44:53;98591.72;;;-4.16;98.45
57442;BME280;43284;47.042;15.498;2022-12-18T01:50:31;98597.25;;;-4.29;96.73
57442;BME280;43284;47.042;15.498;2022-12-18T01:52:58;98596.25;;;-4.35;96.31
57442;BME280;43284;47.042;15.498;2022-12-18T01:55:26;98596.88;;;-4.40;96.55
57442;BME280;43284;47.042;15.498;2022-12-18T01:57:55;98605.94;;;-4.50;95.77
57442;BME280;43284;47.042;15.498;2022-12-18T02:00:22;98600.47;;;-4.61;95.69
57442;BME280;43284;47.042;15.498;2022-12-18T02:02:48;98609.59;;;-4.67;95.54
57442;BME280;43284;47.042;15.498;2022-12-18T02:05:19;98615.47;;;-4.68;96.40
57442;BME280;43284;47.042;15.498;2022-12-18T02:08:26;98626.50;;;-4.69;96.15
57442;BME280;43284;47.042;15.498;2022-12-18T02:16:18;98616.16;;;-4.74;96.54
57442;BME280;43284;47.042;15.498;2022-12-18T02:18:48;98629.69;;;-4.75;96.54
57442;BME280;43284;47.042;15.498;2022-12-18T02:24:39;98634.69;;;-4.54;99.08
57442;BME280;43284;47.042;15.498;2022-12-18T02:27:08;98636.97;;;-4.62;98.53
57442;BME280;43284;47.042;15.498;2022-12-18T02:29:42;98635.34;;;-4.60;98.95
57442;BME280;43284;47.042;15.498;2022-12-18T02:32:15;98634.81;;;-4.75;97.46
57442;BME280;43284;47.042;15.498;2022-12-18T02:34:43;98638.81;;;-4.82;97.02
57442;BME280;43284;47.042;15.498;2022-12-18T02:37:12;98633.22;;;-4.95;96.21
57442;BME280;43284;47.042;15.498;2022-12-18T02:39:42;98630.53;;;-5.00;96.20
57442;BME280;43284;47.042;15.498;2022-12-18T02:42:08;98632.56;;;-4.90;97.73
57442;BME280;43284;47.042;15.498;2022-12-18T02:44:42;98630.78;;;-4.92;97.03
57442;BME280;43284;47.042;15.498;2022-12-18T02:47:11;98634.94;;;-4.94;96.80
57442;BME280;43284;47.042;15.498;2022-12-18T02:49:51;98634.16;;;-4.93;97.20
57442;BME280;43284;47.042;15.498;2022-12-18T02:52:34;98645.00;;;-4.99;97.00
57442;BME280;43284;47.042;15.498;2022-12-18T02:55:17;98648.03;;;-5.09;96.13
57442;BME280;43284;47.042;15.498;2022-12-18T02:57:54;98646.63;;;-5.24;95.46
57442;BME280;43284;47.042;15.498;2022-12-18T03:00:43;98652.66;;;-5.22;95.86
57442;BME280;43284;47.042;15.498;2022-12-18T03:03:33;98651.31;;;-5.12;97.52
57442;BME280;43284;47.042;15.498;2022-12-18T03:06:55;98649.53;;;-5.14;97.36
57442;BME280;43284;47.042;15.498;2022-12-18T03:09:11;98660.31;;;-5.22;96.45
57442;BME280;43284;47.042;15.498;2022-12-18T03:11:42;98662.44;;;-5.32;95.95
57442;BME280;43284;47.042;15.498;2022-12-18T03:14:30;98670.34;;;-5.26;97.26
57442;BME280;43284;47.042;15.498;2022-12-18T03:17:00;98677.72;;;-5.32;96.57
57442;BME280;43284;47.042;15.498;2022-12-18T03:19:28;98671.53;;;-5.39;95.87
57442;BME280;43284;47.042;15.498;2022-12-18T03:21:56;98666.38;;;-5.41;95.98
57442;BME280;43284;47.042;15.498;2022-12-18T03:24:24;98663.03;;;-5.40;96.40
57442;BME280;43284;47.042;15.498;2022-12-18T03:26:54;98659.44;;;-5.22;98.52
57442;BME280;43284;47.042;15.498;2022-12-18T03:29:25;98650.00;;;-5.25;97.93
57442;BME280;43284;47.042;15.498;2022-12-18T03:32:02;98656.22;;;-5.18;98.95
57442;BME280;43284;47.042;15.498;2022-12-18T03:34:32;98656.31;;;-5.15;99.19
57442;BME280;43284;47.042;15.498;2022-12-18T03:36:59;98658.09;;;-5.35;97.48
57442;BME280;43284;47.042;15.498;2022-12-18T03:39:25;98661.97;;;-5.45;96.85
57442;BME280;43284;47.042;15.498;2022-12-18T03:42:01;98667.19;;;-5.42;97.77
57442;BME280;43284;47.042;15.498;2022-12-18T03:44:40;98669.56;;;-5.46;96.39
57442;BME280;43284;47.042;15.498;2022-12-18T03:50:21;98663.53;;;-5.48;96.85
57442;BME280;43284;47.042;15.498;2022-12-18T03:55:41;98681.25;;;-5.51;96.72
57442;BME280;43284;47.042;15.498;2022-12-18T03:58:07;98685.13;;;-5.61;95.86
57442;BME280;43284;47.042;15.498;2022-12-18T04:00:35;98686.63;;;-5.66;95.55
57442;BME280;43284;47.042;15.498;2022-12-18T04:03:01;98684.63;;;-5.73;95.34
57442;BME280;43284;47.042;15.498;2022-12-18T04:05:28;98683.69;;;-5.75;95.52
57442;BME280;43284;47.042;15.498;2022-12-18T04:07:56;98693.25;;;-5.70;96.16
57442;BME280;43284;47.042;15.498;2022-12-18T04:10:22;98696.47;;;-5.74;96.09
57442;BME280;43284;47.042;15.498;2022-12-18T04:12:47;98698.53;;;-5.65;96.80
57442;BME280;43284;47.042;15.498;2022-12-18T04:15:13;98700.41;;;-5.61;97.30
57442;BME280;43284;47.042;15.498;2022-12-18T04:17:45;98708.03;;;-5.61;97.14
57442;BME280;43284;47.042;15.498;2022-12-18T04:20:12;98702.00;;;-5.63;96.70
57442;BME280;43284;47.042;15.498;2022-12-18T04:22:37;98693.44;;;-5.65;96.41
57442;BME280;43284;47.042;15.498;2022-12-18T04:25:03;98692.63;;;-5.64;96.69
57442;BME280;43284;47.042;15.498;2022-12-18T04:27:29;98709.75;;;-5.60;96.78
57442;BME280;43284;47.042;15.498;2022-12-18T04:29:54;98710.75;;;-5.56;96.84
57442;BME280;43284;47.042;15.498;2022-12-18T04:32:20;98716.88;;;-5.53;97.00
57442;BME280;43284;47.042;15.498;2022-12-18T04:34:45;98731.31;;;-5.52;96.71
57442;BME280;43284;47.042;15.498;2022-12-18T04:37:11;98728.03;;;-5.49;96.38
57442;BME280;43284;47.042;15.498;2022-12-18T04:39:36;98728.84;;;-5.50;96.35
57442;BME280;43284;47.042;15.498;2022-12-18T04:42:02;98728.72;;;-5.53;95.42
57442;BME280;43284;47.042;15.498;2022-12-18T04:44:28;98722.06;;;-5.50;95.97
57442;BME280;43284;47.042;15.498;2022-12-18T04:46:53;98724.63;;;-5.50;95.74
57442;BME280;43284;47.042;15.498;2022-12-18T04:49:19;98729.97;;;-5.44;96.42
57442;BME280;43284;47.042;15.498;2022-12-18T04:51:44;98736.41;;;-5.31;98.00
57442;BME280;43284;47.042;15.498;2022-12-18T04:54:10;98738.38;;;-5.24;98.16
57442;BME280;43284;47.042;15.498;2022-12-18T04:56:35;98749.41;;;-5.25;97.60
57442;BME280;43284;47.042;15.498;2022-12-18T04:59:01;98757.22;;;-5.20;97.68
57442;BME280;43284;47.042;15.498;2022-12-18T05:01:26;98754.78;;;-5.17;97.61
57442;BME280;43284;47.042;15.498;2022-12-18T05:03:52;98753.16;;;-5.15;97.54
57442;BME280;43284;47.042;15.498;2022-12-18T05:06:17;98757.00;;;-5.04;96.88
57442;BME280;43284;47.042;15.498;2022-12-18T05:08:43;98750.88;;;-5.09;96.17
57442;BME280;43284;47.042;15.498;2022-12-18T05:11:11;98736.59;;;-5.04;97.68
57442;BME280;43284;47.042;15.498;2022-12-18T05:13:39;98751.31;;;-4.97;98.65
57442;BME280;43284;47.042;15.498;2022-12-18T05:16:05;98765.06;;;-4.93;99.20
57442;BME280;43284;47.042;15.498;2022-12-18T05:18:31;98759.09;;;-4.93;98.85
57442;BME280;43284;47.042;15.498;2022-12-18T05:20:57;98774.22;;;-4.76;100.00
57442;BME280;43284;47.042;15.498;2022-12-18T05:23:23;98773.22;;;-4.79;100.00
57442;BME280;43284;47.042;15.498;2022-12-18T05:25:57;98768.97;;;-4.80;100.00
57442;BME280;43284;47.042;15.498;2022-12-18T05:28:24;98782.81;;;-4.73;100.00
57442;BME280;43284;47.042;15.498;2022-12-18T05:30:52;98782.19;;;-4.68;100.00
57442;BME280;43284;47.042;15.498;2022-12-18T05:33:19;98788.25;;;-4.64;100.00
57442;BME280;43284;47.042;15.498;2022-12-18T05:35:53;98787.56;;;-4.60;100.00
57442;BME280;43284;47.042;15.498;2022-12-18T05:38:23;98788.25;;;-4.64;100.00
57442;BME280;43284;47.042;15.498;2022-12-18T05:40:49;98788.78;;;-4.73;100.00
57442;BME280;43284;47.042;15.498;2022-12-18T05:43:15;98793.13;;;-4.70;100.00
57442;BME280;43284;47.042;15.498;2022-12-18T05:45:41;98791.06;;;-4.81;100.00
57442;BME280;43284;47.042;15.498;2022-12-18T05:48:08;98791.75;;;-4.85;100.00
57442;BME280;43284;47.042;15.498;2022-12-18T05:50:39;98793.44;;;-4.85;100.00
57442;BME280;43284;47.042;15.498;2022-12-18T05:53:05;98796.53;;;-4.92;100.00
57442;BME280;43284;47.042;15.498;2022-12-18T05:55:39;98801.88;;;-4.86;100.00
57442;BME280;43284;47.042;15.498;2022-12-18T05:58:06;98791.47;;;-5.13;99.76
57442;BME280;43284;47.042;15.498;2022-12-18T06:00:34;98792.19;;;-5.16;99.69
57442;BME280;43284;47.042;15.498;2022-12-18T06:03:00;98795.66;;;-5.15;99.84
57442;BME280;43284;47.042;15.498;2022-12-18T06:05:25;98803.91;;;-5.21;99.45
57442;BME280;43284;47.042;15.498;2022-12-18T06:07:51;98804.75;;;-5.21;99.79
57442;BME280;43284;47.042;15.498;2022-12-18T06:10:17;98810.75;;;-5.20;99.90
57442;BME280;43284;47.042;15.498;2022-12-18T06:12:42;98823.75;;;-5.35;99.09
57442;BME280;43284;47.042;15.498;2022-12-18T06:15:08;98814.41;;;-5.34;99.18
57442;BME280;43284;47.042;15.498;2022-12-18T06:17:34;98811.19;;;-5.30;99.78
57442;BME280;43284;47.042;15.498;2022-12-18T06:20:00;98811.19;;;-5.30;99.89
57442;BME280;43284;47.042;15.498;2022-12-18T06:22:26;98823.31;;;-5.25;99.89
57442;BME280;43284;47.042;15.498;2022-12-18T06:24:52;98831.25;;;-5.17;100.00
57442;BME280;43284;47.042;15.498;2022-12-18T06:27:17;98830.16;;;-5.24;100.00
57442;BME280;43284;47.042;15.498;2022-12-18T06:29:43;98837.47;;;-5.31;99.15
57442;BME280;43284;47.042;15.498;2022-12-18T06:32:08;98840.00;;;-5.31;99.22
57442;BME280;43284;47.042;15.498;2022-12-18T06:34:37;98850.19;;;-5.31;99.11
57442;BME280;43284;47.042;15.498;2022-12-18T06:37:03;98848.59;;;-5.29;99.28
57442;BME280;43284;47.042;15.498;2022-12-18T06:39:28;98848.16;;;-5.19;99.64
57442;BME280;43284;47.042;15.498;2022-12-18T06:41:54;98859.41;;;-5.14;100.00
57442;BME280;43284;47.042;15.498;2022-12-18T06:44:19;98854.19;;;-5.17;99.51
57442;BME280;43284;47.042;15.498;2022-12-18T06:46:45;98854.81;;;-5.02;100.00
57442;BME280;43284;47.042;15.498;2022-12-18T06:49:10;98854.91;;;-5.00;99.97
57442;BME280;43284;47.042;15.498;2022-12-18T06:51:36;98853.28;;;-4.98;99.81
57442;BME280;43284;47.042;15.498;2022-12-18T06:54:02;98858.19;;;-5.03;99.14
57442;BME280;43284;47.042;15.498;2022-12-18T06:56:27;98861.53;;;-5.04;98.60
57442;BME280;43284;47.042;15.498;2022-12-18T06:58:53;98872.59;;;-5.03;98.44
57442;BME280;43284;47.042;15.498;2022-12-18T07:01:20;98871.06;;;-5.00;98.36
57442;BME280;43284;47.042;15.498;2022-12-18T07:03:47;98877.00;;;-4.99;97.80
57442;BME280;43284;47.042;15.498;2022-12-18T07:06:17;98880.22;;;-5.05;96.93
57442;BME280;43284;47.042;15.498;2022-12-18T07:08:44;98876.84;;;-5.04;96.92
57442;BME280;43284;47.042;15.498;2022-12-18T07:11:10;98878.38;;;-4.86;98.69
57442;BME280;43284;47.042;15.498;2022-12-18T07:13:35;98881.25;;;-4.79;99.07
57442;BME280;43284;47.042;15.498;2022-12-18T07:16:14;98876.16;;;-4.79;98.63
57442;BME280;43284;47.042;15.498;2022-12-18T07:18:41;98872.84;;;-4.76;98.35
57442;BME280;43284;47.042;15.498;2022-12-18T07:21:09;98883.81;;;-4.79;97.90
57442;BME280;43284;47.042;15.498;2022-12-18T07:23:35;98889.78;;;-4.78;97.81
57442;BME280;43284;47.042;15.498;2022-12-18T07:26:08;98894.31;;;-4.71;98.25
57442;BME280;43284;47.042;15.498;2022-12-18T07:28:34;98893.00;;;-4.61;98.58
57442;BME280;43284;47.042;15.498;2022-12-18T07:31:09;98897.22;;;-4.62;98.25
57442;BME280;43284;47.042;15.498;2022-12-18T07:33:35;98901.03;;;-4.50;98.95
57442;BME280;43284;47.042;15.498;2022-12-18T07:36:02;98906.41;;;-4.44;99.14
57442;BME280;43284;47.042;15.498;2022-12-18T07:38:29;98913.09;;;-4.48;98.62
57442;BME280;43284;47.042;15.498;2022-12-18T07:40:54;98919.13;;;-4.46;98.29
57442;BME280;43284;47.042;15.498;2022-12-18T07:43:20;98913.19;;;-4.45;97.91
57442;BME280;43284;47.042;15.498;2022-12-18T07:45:49;98911.47;;;-4.46;97.39
57442;BME280;43284;47.042;15.498;2022-12-18T07:48:14;98913.53;;;-4.36;98.30
57442;BME280;43284;47.042;15.498;2022-12-18T07:50:40;98917.16;;;-4.30;98.09
57442;BME280;43284;47.042;15.498;2022-12-18T07:53:05;98911.28;;;-4.28;98.02
57442;BME280;43284;47.042;15.498;2022-12-18T07:55:31;98919.75;;;-4.29;97.37
57442;BME280;43284;47.042;15.498;2022-12-18T07:58:00;98931.66;;;-4.29;96.87
57442;BME280;43284;47.042;15.498;2022-12-18T08:00:25;98931.03;;;-4.24;97.16
57442;BME280;43284;47.042;15.498;2022-12-18T08:02:51;98926.78;;;-4.23;96.63
57442;BME280;43284;47.042;15.498;2022-12-18T08:05:17;98940.41;;;-4.23;96.21
57442;BME280;43284;47.042;15.498;2022-12-18T08:07:42;98942.22;;;-4.20;96.37
57442;BME280;43284;47.042;15.498;2022-12-18T08:10:08;98940.13;;;-4.08;97.57
57442;BME280;43284;47.042;15.498;2022-12-18T08:12:33;98940.53;;;-3.97;98.17
57442;BME280;43284;47.042;15.498;2022-12-18T08:14:59;98942.16;;;-3.99;96.71
57442;BME280;43284;47.042;15.498;2022-12-18T08:17:24;98937.41;;;-3.90;97.37
57442;BME280;43284;47.042;15.498;2022-12-18T08:19:50;98944.19;;;-3.90;96.70
57442;BME280;43284;47.042;15.498;2022-12-18T08:22:16;98938.66;;;-3.79;97.73
57442;BME280;43284;47.042;15.498;2022-12-18T08:24:41;98939.59;;;-3.77;97.09
57442;BME280;43284;47.042;15.498;2022-12-18T08:27:07;98947.31;;;-3.75;96.56
57442;BME280;43284;47.042;15.498;2022-12-18T08:29:32;98953.28;;;-3.75;96.02
57442;BME280;43284;47.042;15.498;2022-12-18T08:31:59;98954.97;;;-3.75;95.63
57442;BME280;43284;47.042;15.498;2022-12-18T08:34:24;98943.06;;;-3.75;95.80
57442;BME280;43284;47.042;15.498;2022-12-18T08:36:57;98923.69;;;-3.69;95.83
57442;BME280;43284;47.042;15.498;2022-12-18T08:39:22;98925.41;;;-3.68;95.33
57442;BME280;43284;47.042;15.498;2022-12-18T08:41:48;98932.31;;;-3.66;95.56
57442;BME280;43284;47.042;15.498;2022-12-18T08:44:33;98929.81;;;-3.64;95.40
57442;BME280;43284;47.042;15.498;2022-12-18T08:47:05;98936.56;;;-3.66;94.69
57442;BME280;43284;47.042;15.498;2022-12-18T08:49:31;98942.59;;;-3.64;95.10
57442;BME280;43284;47.042;15.498;2022-12-18T08:51:57;98946.72;;;-3.68;94.07
57442;BME280;43284;47.042;15.498;2022-12-18T08:54:23;98947.78;;;-3.63;94.26
57442;BME280;43284;47.042;15.498;2022-12-18T08:56:49;98952.16;;;-3.59;94.04
57442;BME280;43284;47.042;15.498;2022-12-18T08:59:16;98951.44;;;-3.56;93.93
57442;BME280;43284;47.042;15.498;2022-12-18T09:01:42;98953.91;;;-3.58;93.15
57442;BME280;43284;47.042;15.498;2022-12-18T09:04:09;98960.75;;;-3.57;92.96
57442;BME280;43284;47.042;15.498;2022-12-18T09:06:35;98968.38;;;-3.58;92.35
57442;BME280;43284;47.042;15.498;2022-12-18T09:09:00;98962.56;;;-3.54;92.47
57442;BME280;43284;47.042;15.498;2022-12-18T09:11:27;98954.94;;;-3.53;92.58
57442;BME280;43284;47.042;15.498;2022-12-18T09:13:54;98955.09;;;-3.48;92.78
57442;BME280;43284;47.042;15.498;2022-12-18T09:16:21;98967.03;;;-3.48;92.50
57442;BME280;43284;47.042;15.498;2022-12-18T09:18:47;98967.94;;;-3.46;92.32
57442;BME280;43284;47.042;15.498;2022-12-18T09:21:15;98962.94;;;-3.43;92.39
57442;BME280;43284;47.042;15.498;2022-12-18T09:23:41;98966.41;;;-3.41;92.54
57442;BME280;43284;47.042;15.498;2022-12-18T09:26:07;98970.97;;;-3.34;92.89
57442;BME280;43284;47.042;15.498;2022-12-18T09:28:32;98983.91;;;-3.29;92.76
57442;BME280;43284;47.042;15.498;2022-12-18T09:30:58;98978.03;;;-3.27;92.53
57442;BME280;43284;47.042;15.498;2022-12-18T09:33:24;98981.56;;;-3.23;92.33
57442;BME280;43284;47.042;15.498;2022-12-18T09:35:49;98979.03;;;-3.22;91.94
57442;BME280;43284;47.042;15.498;2022-12-18T09:38:17;98974.16;;;-3.16;92.37
57442;BME280;43284;47.042;15.498;2022-12-18T09:40:52;98969.16;;;-3.13;92.51
57442;BME280;43284;47.042;15.498;2022-12-18T09:43:29;98973.53;;;-3.08;92.51
57442;BME280;43284;47.042;15.498;2022-12-18T09:46:04;98968.69;;;-3.01;92.81
57442;BME280;43284;47.042;15.498;2022-12-18T09:48:40;98965.50;;;-2.95;92.56
57442;BME280;43284;47.042;15.498;2022-12-18T09:51:19;98969.00;;;-2.92;92.15
57442;BME280;43284;47.042;15.498;2022-12-18T09:53:51;98964.81;;;-2.90;92.18
57442;BME280;43284;47.042;15.498;2022-12-18T09:56:20;98962.41;;;-2.85;91.73
57442;BME280;43284;47.042;15.498;2022-12-18T09:59:15;98953.94;;;-2.84;90.94
57442;BME280;43284;47.042;15.498;2022-12-18T10:01:43;98949.75;;;-2.80;91.29
57442;BME280;43284;47.042;15.498;2022-12-18T10:04:09;98951.59;;;-2.76;91.02
57442;BME280;43284;47.042;15.498;2022-12-18T10:17:26;98936.47;;;-2.70;91.26
57442;BME280;43284;47.042;15.498;2022-12-18T10:19:58;98944.97;;;-2.71;91.05
57442;BME280;43284;47.042;15.498;2022-12-18T10:22:31;98941.72;;;-2.65;91.82
57442;BME280;43284;47.042;15.498;2022-12-18T10:25:14;98934.91;;;-2.65;91.53
57442;BME280;43284;47.042;15.498;2022-12-18T10:27:41;98933.03;;;-2.71;90.12
57442;BME280;43284;47.042;15.498;2022-12-18T10:30:15;98943.38;;;-2.67;91.14
57442;BME280;43284;47.042;15.498;2022-12-18T10:32:41;98945.06;;;-2.68;91.06
57442;BME280;43284;47.042;15.498;2022-12-18T10:35:23;98946.69;;;-2.70;90.90
57442;BME280;43284;47.042;15.498;2022-12-18T10:40:56;98946.91;;;-2.64;90.99
57442;BME280;43284;47.042;15.498;2022-12-18T10:43:27;98945.88;;;-2.69;90.90
57442;BME280;43284;47.042;15.498;2022-12-18T10:46:15;98937.38;;;-2.68;91.96
57442;BME280;43284;47.042;15.498;2022-12-18T10:53:56;98935.63;;;-2.69;91.87
57442;BME280;43284;47.042;15.498;2022-12-18T10:56:24;98934.03;;;-2.65;92.31
57442;BME280;43284;47.042;15.498;2022-12-18T10:59:01;98915.22;;;-2.67;91.97
57442;BME280;43284;47.042;15.498;2022-12-18T11:01:28;98922.22;;;-2.62;92.76
57442;BME280;43284;47.042;15.498;2022-12-18T11:06:23;98925.66;;;-2.61;92.86
57442;BME280;43284;47.042;15.498;2022-12-18T11:09:59;98931.50;;;-2.65;92.75
57442;BME280;43284;47.042;15.498;2022-12-18T11:12:08;98930.69;;;-2.64;92.11
57442;BME280;43284;47.042;15.498;2022-12-18T11:14:43;98934.91;;;-2.65;92.35
57442;BME280;43284;47.042;15.498;2022-12-18T11:17:36;98943.56;;;-2.61;92.84
57442;BME280;43284;47.042;15.498;2022-12-18T11:20:24;98930.97;;;-2.55;93.06
57442;BME280;43284;47.042;15.498;2022-12-18T11:23:00;98932.63;;;-2.57;92.00
57442;BME280;43284;47.042;15.498;2022-12-18T11:25:30;98918.38;;;-2.49;93.51
57442;BME280;43284;47.042;15.498;2022-12-18T11:28:25;98921.44;;;-2.59;92.38
57442;BME280;43284;47.042;15.498;2022-12-18T11:36:23;98914.50;;;-2.63;92.97
57442;BME280;43284;47.042;15.498;2022-12-18T11:38:51;98906.91;;;-2.60;92.95
57442;BME280;43284;47.042;15.498;2022-12-18T11:41:41;98912.06;;;-2.59;93.01
57442;BME280;43284;47.042;15.498;2022-12-18T11:44:41;98910.53;;;-2.54;93.16
57442;BME280;43284;47.042;15.498;2022-12-18T11:50:13;98908.13;;;-2.49;93.78
57442;BME280;43284;47.042;15.498;2022-12-18T11:52:40;98909.72;;;-2.53;92.85
57442;BME280;43284;47.042;15.498;2022-12-18T12:00:26;98898.75;;;-2.49;93.96
57442;BME280;43284;47.042;15.498;2022-12-18T12:19:20;98902.91;;;-2.52;94.19
57442;BME280;43284;47.042;15.498;2022-12-18T12:22:36;98897.78;;;-2.52;94.12
57442;BME280;43284;47.042;15.498;2022-12-18T12:31:07;98910.94;;;-2.68;92.04
57442;BME280;43284;47.042;15.498;2022-12-18T12:38:53;98898.16;;;-2.67;94.56
57442;BME280;43284;47.042;15.498;2022-12-18T12:41:23;98900.84;;;-2.64;95.01
57442;BME280;43284;47.042;15.498;2022-12-18T12:44:14;98895.56;;;-2.68;94.01
57442;BME280;43284;47.042;15.498;2022-12-18T12:46:42;98897.22;;;-2.71;93.73
57442;BME280;43284;47.042;15.498;2022-12-18T12:49:18;98904.91;;;-2.69;93.43
57442;BME280;43284;47.042;15.498;2022-12-18T12:51:49;98893.81;;;-2.70;93.88
57442;BME280;43284;47.042;15.498;2022-12-18T12:54:20;98895.72;;;-2.64;95.21
57442;BME280;43284;47.042;15.498;2022-12-18T12:57:09;98907.59;;;-2.66;94.93
57442;BME280;43284;47.042;15.498;2022-12-18T13:05:30;98899.06;;;-2.66;94.93
57442;BME280;43284;47.042;15.498;2022-12-18T13:08:04;98898.16;;;-2.67;94.30
57442;BME280;43284;47.042;15.498;2022-12-18T13:13:02;98895.91;;;-2.58;93.45
57442;BME280;43284;47.042;15.498;2022-12-18T13:15:36;98889.81;;;-2.61;93.89
57442;BME280;43284;47.042;15.498;2022-12-18T13:20:46;98902.34;;;-2.69;94.55
57442;BME280;43284;47.042;15.498;2022-12-18T13:34:19;98906.91;;;-2.60;95.07
57442;BME280;43284;47.042;15.498;2022-12-18T13:36:45;98912.81;;;-2.36;93.35
57442;BME280;43284;47.042;15.498;2022-12-18T13:39:22;98919.13;;;-2.52;93.21
57442;BME280;43284;47.042;15.498;2022-12-18T13:42:21;98924.00;;;-2.59;94.12
57442;BME280;43284;47.042;15.498;2022-12-18T13:44:59;98925.50;;;-2.66;93.75
57442;BME280;43284;47.042;15.498;2022-12-18T13:47:36;98920.59;;;-2.60;93.39
57442;BME280;43284;47.042;15.498;2022-12-18T13:50:28;98929.06;;;-2.62;93.90
57442;BME280;43284;47.042;15.498;2022-12-18T13:52:54;98922.84;;;-2.42;92.97
57442;BME280;43284;47.042;15.498;2022-12-18T13:55:20;98917.81;;;-2.12;90.51
57442;BME280;43284;47.042;15.498;2022-12-18T13:57:47;98931.53;;;-2.37;89.51
57442;BME280;43284;47.042;15.498;2022-12-18T14:02:48;98934.16;;;-2.62;91.57
57442;BME280;43284;47.042;15.498;2022-12-18T14:05:24;98928.22;;;-2.61;92.34
57442;BME280;43284;47.042;15.498;2022-12-18T14:07:52;98930.72;;;-2.63;93.10
57442;BME280;43284;47.042;15.498;2022-12-18T14:10:19;98928.28;;;-2.58;94.28
57442;BME280;43284;47.042;15.498;2022-12-18T14:12:47;98935.16;;;-2.57;93.98
57442;BME280;43284;47.042;15.498;2022-12-18T14:17:57;98928.44;;;-2.54;92.84
57442;BME280;43284;47.042;15.498;2022-12-18T14:20:25;98927.44;;;-2.59;92.57
57442;BME280;43284;47.042;15.498;2022-12-18T14:22:51;98930.91;;;-2.57;92.58
57442;BME280;43284;47.042;15.498;2022-12-18T14:25:22;98939.78;;;-2.47;91.79
57442;BME280;43284;47.042;15.498;2022-12-18T14:28:02;98937.31;;;-2.44;91.21
57442;BME280;43284;47.042;15.498;2022-12-18T14:30:34;98935.75;;;-2.39;90.72
57442;BME280;43284;47.042;15.498;2022-12-18T14:33:06;98943.56;;;-2.34;90.13
57442;BME280;43284;47.042;15.498;2022-12-18T14:35:36;98950.47;;;-2.59;90.78
57442;BME280;43284;47.042;15.498;2022-12-18T14:38:11;98939.31;;;-2.61;91.20
57442;BME280;43284;47.042;15.498;2022-12-18T14:40:43;98946.06;;;-2.63;91.81
57442;BME280;43284;47.042;15.498;2022-12-18T14:43:10;98944.97;;;-2.44;90.76
57442;BME280;43284;47.042;15.498;2022-12-18T14:45:41;98943.84;;;-2.52;91.69
57442;BME280;43284;47.042;15.498;2022-12-18T14:48:09;98947.81;;;-2.62;91.18
57442;BME280;43284;47.042;15.498;2022-12-18T14:50:38;98943.53;;;-2.36;91.25
57442;BME280;43284;47.042;15.498;2022-12-18T14:53:20;98948.47;;;-2.42;89.92